Share

Bath Springs, TN

HardinCountyWeather.com (KTNSAVAN4) Elev 413 ft | 35.26 °N, 88.22 °W | Change Station
Active Advisory: Frost Advisory Active Notice: Record Report

Current weather conditions updated 3 seconds ago

Clear
Clear
41.6 °F
Feels Like 42 °F
N
0.0
Wind Variable Wind from South
Gusts 1.0 mph
Sunrise 6:17 AM
Sunset 7:27 PM
Moon Waning Gibbous

Today is forecast to be Warmer than yesterday.

Pressure 30.22 in
Visibility 10.0 miles
Clouds Clear
Windchill 42 °F
Dew Point 36 °F
Humidity 80%
Rainfall 0.00 in
Snow Depth Not available.
UV 0 out of 16
Pollen 8.10 out of 12
Air Quality Not available.
Flu Activity Local Activity
METAR KCRX 170710Z AUTO 00000KT 10SM CLR 05/03 A3022 RMK AO2

More Conditions Fewer Conditions

Pressure 30.22 in
Visibility 10.0 miles
Clouds Clear
Windchill 42 °F
Dew Point 36 °F
Humidity 80%
Rainfall 0.00 in
Snow Depth Not available.
UV 0 out of 16
Pollen 8.10 out of 12
Air Quality Not available.
Flu Activity Local Activity
METAR KCRX 170710Z AUTO 00000KT 10SM CLR 05/03 A3022 RMK AO2

More Conditions Fewer Conditions

10-Day Forecast

Almanac

Astronomy

Apr. 17, 2014 Rise Set
Actual Time 6:17 AM CDT 7:27 PM CDT
Civil Twilight 5:51 AM CDT 7:53 PM CDT
Nautical Twilight 5:19 AM CDT 8:24 PM CDT
Astronomical Twilight 4:47 AM CDT 8:57 PM CDT
Moon 10:08 PM CDT 7:52 AM CDT
Length of Visible Light 14h 02m
Length of Day
13h 09m
Tomorrow will be 2m 6s longer.
Waning Gibbous, 95% of the Moon is Illuminated
Today
Waning Gibbous
Apr 22
Last Quarter
Apr 29
New
May 6
First Quarter
May 14
Full

Today's Extremes

State Highs State Lows

Community

  • Sunset over the Bay
    Sunset over the Bay
  • symphony in blue....
    symphony in blue....
  • Dawn Surprise
    Dawn Surprise
  • Yucca delight
    Yucca delight
  • Sunset inside of the Ocean
    Sunset inside of the Ocean

WunderPhotos

Upload Photos

1,701,875 photos uploaded!

WunderBlogs® & News

Nearby

Snow Depth

Station Depth Elevation
No new snow has been reported.

Coastal Water Temperatures

Place Temperature
No Stations Reporting

Earthquake Activity

City Distance Mag. Time & Date
No recent earthquake activity has been reported nearby.
Minimum magnitude displayed is 2.5.

Nearby Weather Stations

Station Location Temp. Windchill Dew Point Humidity Wind Precip. Elev Updated Type
HardinCountyWeather.com, Savannah, TN 41.6 °F 42 °F 36 °F 80% South  at  0.0 mph 0.00 in / hr 413 ft 2:31 AM CDT Rapid Fire
ParsonsWeather.com, Parsons, TN 41.8 °F 42 °F 34 °F 74% SE  at  0.0 mph 0.00 in / hr 489 ft 2:31 AM CDT Rapid Fire
RAWS SHILOH NMP TN, Shiloh, TN 45 °F 45 °F 40 °F 83% North  at  0 mph 0.00 in / hr 419 ft 1:07 AM CDT MADIS

Show More Stations Show Fewer Stations

What do you think?

We're not finished. Please let us know what you like, what you don't like, and what you are still missing.